Main page
METAR-TAF:

METAR-TAF

Airports :

Jersey Airport

Jersey,

latitude: 49-13N, longitude: 002-12W, elevation: 84 m

Current weather observation

The report was made 37 minutes ago, at 20:50 UTC
Wind 13 kt from the East
Temperature 12°C
Humidity 82%
Pressure 1018 hPa
Visibility: 6000 m
haze

METAR: EGJJ 202050Z AUTO 08013KT 6000 HZ NCD 12/09 Q1018

Time: 22:27 (21:27 UTC)

Forecast

The report was made 25 minutes ago, at 21:02 UTC
Forecast valid from 20 at 21 UTC to 21 at 06 UTC
Wind 10 kt from the East/Northeast
Visibility: 6000 m
Temporary
from 20 at 21 UTC to 21 at 06 UTC
Visibility: 4000 m
mist
Probability 30% :
Temporary
from 21 at 03 UTC to 21 at 06 UTC
Visibility: 0500 m
Broken clouds at a height lower than 100 ft
fog

TAF: EGJJ 202102Z 2021/2106 06010KT 6000 NSC TEMPO 2021/2106 4000 BR PROB30 TEMPO 2103/2106 0500 FG BKN000

Weather observations and forecasts of more than 4000 airports (METAR and TAF reports).

The available stations are represented by yellow and red dots on the map.

Hover mouse over dot to see the name of the station.

Then click to see weather observations and forecasts.

To change the map : click on the green buttons with a black cross to zoom in, on the green button with a dash to zoom out, or on the green arrows for adjacent maps.


METAR-TAF: